Logo AVAMET
Benvolgut visitant, si us plau, ingressa Recuperar contrasenya

Fontanars poble

Microdades

Dia
Data Direcció
vent
(graus)
Direcció
vent
Velocitat
vent
(km/h)
Ràfega
màx vent
(km/h)
Temperatura
(°C)
Humitat
relativa
(%)
Pressió
(hPa)
Precipitació
acumulada
(mm)
19-11-2017 00:10 109 ESE 4,8 6,4 7,3 94,0 1.023,0 0,0
19-11-2017 00:15 110 ESE 3,2 6,4 7,5 94,0 1.023,0 0,0
19-11-2017 00:20 119 ESE 3,2 6,4 7,9 95,0 1.022,9 0,0
19-11-2017 00:25 113 ESE 1,6 6,4 8,2 95,0 1.022,8 0,0
19-11-2017 00:30 141 SE 0,0 6,4 8,3 95,0 1.022,8 0,0
19-11-2017 00:35 108 ESE 3,2 6,4 8,2 94,0 1.022,8 0,0
19-11-2017 00:40 110 ESE 1,6 6,4 8,4 94,0 1.022,8 0,0
19-11-2017 00:45 117 ESE 1,6 6,4 8,5 94,0 1.022,7 0,0
19-11-2017 00:50 124 SE 3,2 6,4 8,5 94,0 1.022,7 0,0
19-11-2017 00:55 112 ESE 0,0 6,4 8,6 94,0 1.022,7 0,0
19-11-2017 01:00 53 NE 4,8 6,4 8,7 94,0 1.022,6 0,0
19-11-2017 01:05 91 E 0,0 6,4 8,5 93,0 1.022,6 0,0
19-11-2017 01:10 78 ENE 0,0 6,4 8,2 93,0 1.022,6 0,0
19-11-2017 01:15 79 E 0,0 6,4 8,3 93,0 1.022,5 0,0
19-11-2017 01:20 81 E 1,6 6,4 8,6 93,0 1.022,5 0,0
19-11-2017 01:25 92 E 1,6 6,4 8,7 93,0 1.022,4 0,0
19-11-2017 01:30 81 E 1,6 6,4 8,8 93,0 1.022,4 0,0
19-11-2017 01:35 82 E 1,6 6,4 8,9 93,0 1.022,4 0,0
19-11-2017 01:40 105 ESE 0,0 6,4 8,9 93,0 1.022,3 0,0
19-11-2017 01:45 102 ESE 0,0 6,4 8,9 93,0 1.022,3 0,0
19-11-2017 01:50 68 ENE 4,8 8,0 8,9 92,0 1.022,3 0,0
19-11-2017 01:55 62 ENE 0,0 8,0 9,1 93,0 1.022,3 0,0
19-11-2017 02:00 65 ENE 0,0 8,0 9,1 92,0 1.022,4 0,0
19-11-2017 02:05 65 ENE 0,0 8,0 9,0 92,0 1.022,4 0,0
19-11-2017 02:10 60 ENE 3,2 8,0 9,1 92,0 1.022,5 0,0
19-11-2017 02:15 105 ESE 0,0 8,0 9,2 92,0 1.022,5 0,0
19-11-2017 02:20 49 NE 3,2 8,0 9,2 91,0 1.022,5 0,0
19-11-2017 02:25 94 E 3,2 8,0 9,2 91,0 1.022,5 0,0
19-11-2017 02:30 63 ENE 0,0 8,0 9,3 91,0 1.022,5 0,0
19-11-2017 02:35 104 ESE 1,6 8,0 9,3 91,0 1.022,5 0,0
19-11-2017 02:40 94 E 3,2 8,0 9,3 91,0 1.022,4 0,0
19-11-2017 02:45 101 E 0,0 8,0 9,2 91,0 1.022,4 0,0
19-11-2017 02:50 77 ENE 3,2 8,0 9,2 91,0 1.022,4 0,0
19-11-2017 02:55 58 ENE 0,0 8,0 9,2 91,0 1.022,4 0,0
19-11-2017 03:05 109 ESE 4,8 8,0 9,1 91,0 1.022,4 0,0
19-11-2017 03:10 94 E 3,2 8,0 9,2 91,0 1.022,3 0,0
19-11-2017 03:15 113 ESE 0,0 8,0 9,2 91,0 1.022,3 0,0
19-11-2017 03:20 107 ESE 0,0 8,0 9,2 91,0 1.022,3 0,0
19-11-2017 03:25 109 ESE 0,0 8,0 9,1 91,0 1.022,2 0,0
19-11-2017 03:30 131 SE 3,2 8,0 9,1 91,0 1.022,0 0,0
19-11-2017 03:35 120 ESE 0,0 8,0 8,9 91,0 1.022,0 0,0
19-11-2017 03:40 120 ESE 0,0 8,0 8,8 91,0 1.022,0 0,0
19-11-2017 03:45 120 ESE 0,0 8,0 8,6 91,0 1.022,0 0,0
19-11-2017 03:50 120 ESE 0,0 8,0 8,3 91,0 1.021,9 0,0
19-11-2017 03:55 141 SE 0,0 8,0 8,1 91,0 1.022,0 0,0
19-11-2017 04:00 169 S 1,6 8,0 7,8 91,0 1.021,9 0,0
19-11-2017 04:05 169 S 0,0 8,0 7,6 92,0 1.021,8 0,0
19-11-2017 04:10 169 S 0,0 8,0 7,5 92,0 1.021,8 0,0
19-11-2017 04:15 169 S 0,0 8,0 7,4 92,0 1.021,7 0,0
19-11-2017 04:20 27 NNE 0,0 8,0 6,7 90,0 1.021,8 0,0
19-11-2017 04:25 27 NNE 0,0 8,0 6,0 90,0 1.021,8 0,0
19-11-2017 04:30 28 NNE 0,0 8,0 5,7 91,0 1.021,8 0,0
19-11-2017 04:35 63 ENE 0,0 8,0 5,7 92,0 1.021,8 0,0
19-11-2017 04:40 62 ENE 0,0 8,0 5,7 92,0 1.021,8 0,0
19-11-2017 04:45 62 ENE 0,0 8,0 5,6 92,0 1.021,8 0,0
19-11-2017 04:50 63 ENE 0,0 8,0 5,4 92,0 1.021,8 0,0
19-11-2017 04:55 62 ENE 0,0 8,0 5,2 92,0 1.021,8 0,0
19-11-2017 05:00 63 ENE 0,0 8,0 4,9 92,0 1.021,9 0,0
19-11-2017 05:05 171 S 0,0 8,0 4,8 93,0 1.021,8 0,0
19-11-2017 05:10 172 S 0,0 8,0 4,9 93,0 1.021,9 0,0
19-11-2017 05:15 172 S 0,0 8,0 4,8 93,0 1.022,0 0,0
19-11-2017 05:20 172 S 0,0 8,0 4,7 93,0 1.022,0 0,0
19-11-2017 05:25 171 S 0,0 8,0 4,5 93,0 1.022,0 0,0
19-11-2017 05:30 172 S 0,0 8,0 4,3 93,0 1.022,0 0,0
19-11-2017 05:35 172 S 0,0 8,0 4,2 93,0 1.022,0 0,0
19-11-2017 05:40 172 S 0,0 8,0 4,2 93,0 1.022,0 0,0
19-11-2017 05:45 170 S 0,0 8,0 4,1 93,0 1.022,0 0,0
19-11-2017 05:50 165 SSE 0,0 8,0 3,9 93,0 1.022,0 0,0
19-11-2017 05:55 146 SE 0,0 8,0 3,9 94,0 1.022,2 0,0
19-11-2017 06:00 146 SE 0,0 8,0 4,0 94,0 1.022,3 0,0
19-11-2017 06:05 146 SE 0,0 8,0 3,9 94,0 1.022,3 0,0
19-11-2017 06:10 146 SE 0,0 8,0 3,9 94,0 1.022,3 0,0
19-11-2017 06:15 147 SSE 0,0 8,0 3,8 94,0 1.022,3 0,0
19-11-2017 06:20 146 SE 0,0 8,0 3,7 94,0 1.022,3 0,0
19-11-2017 06:25 146 SE 0,0 8,0 3,7 94,0 1.022,3 0,0
19-11-2017 06:30 146 SE 0,0 8,0 3,7 94,0 1.022,3 0,0
19-11-2017 06:35 146 SE 0,0 8,0 3,6 94,0 1.022,3 0,0
19-11-2017 06:40 147 SSE 0,0 8,0 3,6 94,0 1.022,0 0,0
19-11-2017 06:45 143 SE 0,0 8,0 3,4 94,0 1.022,0 0,0
19-11-2017 06:50 36 NE 0,0 8,0 2,7 93,0 1.022,2 0,0
19-11-2017 06:55 37 NE 0,0 8,0 2,3 93,0 1.022,2 0,0
19-11-2017 07:00 160 SSE 0,0 8,0 2,4 94,0 1.022,2 0,0
19-11-2017 07:05 174 S 1,6 8,0 2,6 95,0 1.022,3 0,0
19-11-2017 07:10 174 S 0,0 8,0 3,0 95,0 1.022,4 0,0
19-11-2017 07:15 174 S 0,0 8,0 3,6 96,0 1.022,4 0,0
19-11-2017 07:20 174 S 0,0 8,0 3,5 96,0 1.022,4 0,0
19-11-2017 07:25 174 S 0,0 8,0 3,2 95,0 1.022,5 0,0
19-11-2017 07:30 174 S 0,0 8,0 2,7 95,0 1.022,5 0,0
19-11-2017 07:35 174 S 0,0 8,0 2,5 95,0 1.022,5 0,0
19-11-2017 07:40 174 S 0,0 8,0 2,4 95,0 1.022,5 0,0
19-11-2017 07:45 174 S 0,0 8,0 2,4 95,0 1.022,6 0,0
19-11-2017 07:50 174 S 0,0 8,0 2,6 95,0 1.022,6 0,0
19-11-2017 08:00 174 S 0,0 8,0 2,4 95,0 1.022,7 0,0
19-11-2017 08:05 174 S 0,0 8,0 2,6 95,0 1.022,8 0,0
19-11-2017 08:10 175 S 0,0 8,0 2,7 95,0 1.022,9 0,0
19-11-2017 08:15 174 S 0,0 8,0 2,9 96,0 1.022,9 0,0
19-11-2017 08:20 174 S 0,0 8,0 3,5 96,0 1.022,9 0,0
19-11-2017 08:25 174 S 0,0 8,0 3,7 96,0 1.023,1 0,0
19-11-2017 08:30 174 S 0,0 8,0 3,7 96,0 1.023,1 0,0
19-11-2017 08:35 174 S 0,0 8,0 3,9 96,0 1.023,2 0,0
19-11-2017 08:40 174 S 0,0 8,0 4,1 96,0 1.023,3 0,0
19-11-2017 08:45 175 S 0,0 8,0 4,2 96,0 1.023,3 0,0
19-11-2017 08:50 233 SO 0,0 8,0 4,2 96,0 1.023,3 0,0
19-11-2017 08:55 243 OSO 0,0 8,0 4,1 96,0 1.023,4 0,0
19-11-2017 08:59 258 OSO 0,0 8,0 4,0 96,0 1.023,6 0,0
19-11-2017 09:04 259 O 0,0 8,0 3,9 96,0 1.023,6 0,0
19-11-2017 09:09 273 O 0,0 8,0 3,8 96,0 1.023,6 0,0
19-11-2017 09:14 273 O 0,0 8,0 3,8 96,0 1.023,6 0,0
19-11-2017 09:19 273 O 0,0 8,0 3,9 96,0 1.023,7 0,0
19-11-2017 09:24 273 O 0,0 8,0 3,9 96,0 1.023,8 0,0
19-11-2017 09:29 273 O 0,0 8,0 4,1 96,0 1.023,7 0,0
19-11-2017 09:34 284 ONO 0,0 8,0 4,3 96,0 1.023,8 0,0
19-11-2017 09:40 248 OSO 1,6 8,0 4,7 96,0 1.023,8 0,0
19-11-2017 09:45 284 ONO 1,6 8,0 5,0 96,0 1.023,7 0,0
19-11-2017 09:50 270 O 3,2 8,0 5,3 96,0 1.023,8 0,0
19-11-2017 09:55 264 O 3,2 8,0 5,7 96,0 1.023,7 0,0
19-11-2017 09:59 276 O 1,6 8,0 5,9 96,0 1.023,7 0,0
19-11-2017 10:04 248 OSO 1,6 8,0 6,3 95,0 1.023,7 0,0
19-11-2017 10:09 290 ONO 0,0 8,0 6,7 95,0 1.023,6 0,0
19-11-2017 10:14 277 O 1,6 8,0 7,0 94,0 1.023,6 0,0
19-11-2017 10:19 261 O 1,6 8,0 7,3 93,0 1.023,5 0,0
19-11-2017 10:24 291 ONO 0,0 8,0 7,5 92,0 1.023,5 0,0
19-11-2017 10:29 278 O 1,6 8,0 7,7 91,0 1.023,5 0,0
19-11-2017 10:34 270 O 4,8 8,0 7,9 91,0 1.023,4 0,0
19-11-2017 10:39 261 O 4,8 9,7 8,1 90,0 1.023,5 0,0
19-11-2017 10:44 240 OSO 4,8 9,7 8,3 89,0 1.023,5 0,0
19-11-2017 10:50 264 O 4,8 12,9 8,5 87,0 1.023,5 0,0
19-11-2017 10:55 259 O 8,0 12,9 8,7 87,0 1.023,5 0,0
19-11-2017 11:05 247 OSO 0,0 12,9 9,7 86,0 1.023,6 0,0
19-11-2017 11:10 233 SO 1,6 12,9 10,3 84,0 1.023,5 0,0
19-11-2017 11:15 238 OSO 3,2 12,9 10,8 83,0 1.023,6 0,0
19-11-2017 11:20 253 OSO 3,2 12,9 11,4 80,0 1.023,6 0,0
19-11-2017 11:25 264 O 6,4 12,9 11,8 78,0 1.023,7 0,0
19-11-2017 11:30 283 ONO 3,2 12,9 12,1 76,0 1.023,6 0,0
19-11-2017 11:35 271 O 4,8 12,9 12,4 75,0 1.023,6 0,0
19-11-2017 11:40 270 O 4,8 12,9 12,7 73,0 1.023,6 0,0
19-11-2017 11:45 264 O 9,7 12,9 12,9 72,0 1.023,6 0,0
19-11-2017 11:50 251 OSO 6,4 14,5 13,1 70,0 1.023,5 0,0
19-11-2017 11:55 300 ONO 11,3 14,5 13,4 70,0 1.023,5 0,0
19-11-2017 12:00 293 ONO 8,0 14,5 13,7 69,0 1.023,4 0,0
19-11-2017 12:05 266 O 11,3 14,5 13,9 67,0 1.023,3 0,0
19-11-2017 12:10 312 NO 4,8 14,5 14,1 65,0 1.023,2 0,0
19-11-2017 12:15 300 ONO 4,8 14,5 14,4 63,0 1.023,2 0,0
19-11-2017 12:20 267 O 6,4 14,5 14,5 63,0 1.023,1 0,0
19-11-2017 12:25 269 O 8,0 14,5 14,7 60,0 1.023,0 0,0
19-11-2017 12:30 231 SO 6,4 16,1 14,8 61,0 1.022,9 0,0
19-11-2017 12:35 280 O 4,8 16,1 15,0 59,0 1.022,8 0,0
19-11-2017 12:40 300 ONO 12,9 16,1 15,2 57,0 1.022,7 0,0
19-11-2017 12:45 294 ONO 12,9 16,1 15,5 54,0 1.022,6 0,0
19-11-2017 12:50 298 ONO 9,7 16,1 15,7 52,0 1.022,6 0,0
19-11-2017 12:55 271 O 8,0 16,1 15,9 51,0 1.022,6 0,0
19-11-2017 13:00 309 NO 6,4 16,1 16,1 47,0 1.022,6 0,0
19-11-2017 13:05 224 SO 8,0 16,1 16,4 45,0 1.022,5 0,0
19-11-2017 13:10 266 O 9,7 16,1 16,6 44,0 1.022,5 0,0
19-11-2017 13:15 280 O 3,2 17,7 16,6 42,0 1.022,5 0,0
19-11-2017 13:20 291 ONO 11,3 17,7 16,7 45,0 1.022,5 0,0
19-11-2017 13:25 248 OSO 6,4 17,7 16,7 46,0 1.022,5 0,0
19-11-2017 13:30 297 ONO 4,8 17,7 16,8 45,0 1.022,5 0,0
19-11-2017 13:35 252 OSO 3,2 17,7 16,8 45,0 1.022,5 0,0
19-11-2017 13:40 245 OSO 6,4 17,7 16,7 45,0 1.022,3 0,0
19-11-2017 13:45 232 SO 4,8 17,7 16,9 46,0 1.022,2 0,0
19-11-2017 13:50 259 O 4,8 17,7 16,9 44,0 1.022,1 0,0
19-11-2017 13:55 255 OSO 16,1 17,7 17,2 43,0 1.022,0 0,0
19-11-2017 14:00 269 O 4,8 17,7 17,4 42,0 1.021,9 0,0
19-11-2017 14:05 260 O 6,4 17,7 17,3 41,0 1.021,9 0,0
19-11-2017 14:10 283 ONO 8,0 17,7 17,2 42,0 1.021,7 0,0
19-11-2017 14:15 287 ONO 9,7 17,7 17,3 41,0 1.021,6 0,0
19-11-2017 14:20 245 OSO 6,4 17,7 17,6 41,0 1.021,5 0,0
19-11-2017 14:25 284 ONO 6,4 17,7 17,6 41,0 1.021,5 0,0
19-11-2017 14:30 266 O 8,0 17,7 17,7 39,0 1.021,5 0,0
19-11-2017 14:35 274 O 3,2 19,3 17,7 39,0 1.021,5 0,0
19-11-2017 14:40 251 OSO 9,7 19,3 17,9 38,0 1.021,5 0,0
19-11-2017 14:45 256 OSO 8,0 19,3 18,0 38,0 1.021,4 0,0
19-11-2017 14:50 264 O 8,0 19,3 18,2 37,0 1.021,4 0,0
19-11-2017 14:55 234 SO 6,4 19,3 18,2 37,0 1.021,4 0,0
19-11-2017 15:00 265 O 12,9 19,3 18,2 37,0 1.021,3 0,0
19-11-2017 15:05 269 O 6,4 19,3 18,2 38,0 1.021,3 0,0
19-11-2017 15:10 214 SO 4,8 19,3 18,2 39,0 1.021,3 0,0
19-11-2017 15:15 218 SO 3,2 19,3 18,2 40,0 1.021,3 0,0
19-11-2017 15:20 246 OSO 16,1 19,3 18,3 39,0 1.021,3 0,0
19-11-2017 15:25 256 OSO 8,0 19,3 18,2 40,0 1.021,3 0,0
19-11-2017 15:30 262 O 4,8 19,3 18,2 40,0 1.021,4 0,0
19-11-2017 15:35 272 O 4,8 19,3 18,4 40,0 1.021,2 0,0
19-11-2017 15:40 276 O 3,2 19,3 18,4 40,0 1.021,3 0,0
19-11-2017 15:45 227 SO 1,6 19,3 18,5 39,0 1.021,3 0,0
19-11-2017 15:50 294 ONO 3,2 19,3 18,6 39,0 1.021,3 0,0
19-11-2017 15:55 271 O 8,0 19,3 18,6 40,0 1.021,3 0,0
19-11-2017 16:00 282 ONO 1,6 19,3 18,7 40,0 1.021,3 0,0
19-11-2017 16:05 214 SO 1,6 19,3 18,7 41,0 1.021,4 0,0
19-11-2017 16:10 246 OSO 1,6 19,3 18,7 40,0 1.021,3 0,0
19-11-2017 16:15 257 OSO 8,0 19,3 18,7 41,0 1.021,4 0,0
19-11-2017 16:20 236 SO 3,2 19,3 18,6 40,0 1.021,5 0,0
19-11-2017 16:25 283 ONO 4,8 19,3 18,6 40,0 1.021,5 0,0
19-11-2017 16:30 245 OSO 0,0 19,3 18,5 41,0 1.021,5 0,0
19-11-2017 16:35 260 O 6,4 19,3 18,6 41,0 1.021,5 0,0
19-11-2017 16:40 243 OSO 1,6 19,3 18,6 41,0 1.021,5 0,0
19-11-2017 16:45 253 OSO 1,6 19,3 18,6 41,0 1.021,5 0,0
19-11-2017 16:50 243 OSO 0,0 19,3 18,4 41,0 1.021,6 0,0
19-11-2017 16:55 245 OSO 1,6 19,3 18,2 41,0 1.021,5 0,0
19-11-2017 17:00 240 OSO 1,6 19,3 18,0 41,0 1.021,5 0,0
19-11-2017 17:05 229 SO 0,0 19,3 17,8 42,0 1.021,5 0,0
19-11-2017 17:10 253 OSO 1,6 19,3 17,7 42,0 1.021,5 0,0
19-11-2017 17:15 281 O 0,0 19,3 17,4 42,0 1.021,6 0,0
19-11-2017 17:19 238 OSO 1,6 19,3 17,2 42,0 1.021,5 0,0
19-11-2017 17:24 257 OSO 0,0 19,3 17,2 44,0 1.021,5 0,0
19-11-2017 17:29 249 OSO 1,6 19,3 17,0 45,0 1.021,5 0,0
19-11-2017 17:34 238 OSO 0,0 19,3 16,9 47,0 1.021,6 0,0
19-11-2017 17:39 229 SO 0,0 19,3 16,7 47,0 1.021,6 0,0
19-11-2017 17:44 240 OSO 0,0 19,3 16,4 50,0 1.021,8 0,0
19-11-2017 17:49 235 SO 0,0 19,3 15,9 52,0 1.021,8 0,0
19-11-2017 17:55 236 SO 0,0 19,3 15,5 54,0 1.021,8 0,0
19-11-2017 17:59 233 SO 0,0 19,3 15,2 55,0 1.021,9 0,0
19-11-2017 18:05 225 SO 0,0 19,3 14,9 56,0 1.021,9 0,0
19-11-2017 18:09 200 SSO 0,0 19,3 14,7 57,0 1.021,9 0,0
19-11-2017 18:14 194 SSO 0,0 19,3 14,6 58,0 1.021,9 0,0
19-11-2017 18:19 186 S 0,0 19,3 14,4 58,0 1.022,0 0,0
19-11-2017 18:24 174 S 0,0 19,3 14,2 59,0 1.022,1 0,0
19-11-2017 18:29 216 SO 0,0 19,3 13,9 58,0 1.022,2 0,0
19-11-2017 18:34 211 SSO 0,0 19,3 13,6 58,0 1.022,2 0,0
19-11-2017 18:39 211 SSO 0,0 19,3 13,4 59,0 1.022,2 0,0
19-11-2017 18:49 219 SO 0,0 19,3 12,7 61,0 1.022,4 0,0
19-11-2017 18:54 75 ENE 0,0 19,3 12,6 62,0 1.022,3 0,0
19-11-2017 18:59 73 ENE 0,0 19,3 12,4 62,0 1.022,4 0,0
Nota sobre les dades: s'avisa a l'usuari de la provisionalitat i no oficialitat d'aquestes dades
Descarregar PDF
Descarregar CSV
Logo AVAMET blanc
Llicència de Creative CommonsLa web d'AVAMET i els seus continguts estan subjectes a una llicència de
Reconeixement - No Comercial - Compartir igual
Properes estacions: Los Isidros, Los Ruices (soci), Albocàsser - la Llacuna (AMEAL) - - - Últimes estacions: Sagunt - Racó de Gausa (soci), Sagunt - els Arenals (soci), El Puig - la Lloma (soci), Nàquera - Germanells (soci) - - - - - - - - - - - - Properes estacions: Los Isidros, Los Ruices (soci), Albocàsser - la Llacuna (AMEAL) - - - Últimes estacions: Sagunt - Racó de Gausa (soci), Sagunt - els Arenals (soci), El Puig - la Lloma (soci), Nàquera - Germanells (soci)